Time;durP1;ratioP1;P1;durP2;ratioP2;P2;SDS_P1;SDS_P2;PMS_P1;PMS_P2;Temp;Humidity;BMP_temperature;BMP_pressure;BME280_temperature;BME280_humidity;BME280_pressure;Samples;Min_cycle;Max_cycle;Signal;HPM_P1;HPM_P2
2021/04/23 00:01:13;;;;;;;14.68;11.33;;;;;;;9.07;79.16;99224.66;1766617;81;21124;-62
2021/04/23 00:03:50;;;;;;;15.40;11.00;;;;;;;9.01;79.38;99230.53;1766633;81;21372;-62
2021/04/23 00:06:40;;;;;;;13.70;10.32;;;;;;;8.92;79.67;99221.38;1766606;81;21080;-62
2021/04/23 00:09:26;;;;;;;12.93;10.35;;;;;;;8.87;79.83;99229.33;1766704;81;21481;-63
2021/04/23 00:12:02;;;;;;;11.83;9.28;;;;;;;8.81;79.93;99228.26;1766598;81;21148;-64
2021/04/23 00:14:36;;;;;;;10.13;9.08;;;;;;;8.77;80.12;99224.56;1766640;81;21718;-63
2021/04/23 00:17:04;;;;;;;8.90;8.00;;;;;;;8.74;80.34;99229.41;1766724;81;21611;-63
2021/04/23 00:19:31;;;;;;;9.10;8.20;;;;;;;8.72;80.46;99232.52;1766499;81;21076;-63
2021/04/23 00:22:00;;;;;;;9.30;8.43;;;;;;;8.71;80.58;99228.23;1766637;81;21053;-63
2021/04/23 00:24:29;;;;;;;9.63;8.35;;;;;;;8.71;80.51;99239.05;1766573;81;21057;-63
2021/04/23 00:26:56;;;;;;;8.45;7.15;;;;;;;8.68;80.62;99229.64;1766660;81;21128;-63
2021/04/23 00:29:24;;;;;;;8.15;7.35;;;;;;;8.70;80.76;99234.31;1766701;81;22368;-63
2021/04/23 00:34:40;;;;;;;9.13;8.00;;;;;;;8.77;80.78;99232.34;1766678;81;21512;-63
2021/04/23 00:37:08;;;;;;;10.72;9.30;;;;;;;8.79;80.78;99230.55;1766664;81;21537;-62
2021/04/23 00:39:36;;;;;;;11.65;10.00;;;;;;;8.81;80.90;99236.48;1766668;81;21140;-64
2021/04/23 00:42:06;;;;;;;10.78;9.08;;;;;;;8.86;80.86;99241.06;1766695;81;21568;-64
2021/04/23 00:44:34;;;;;;;11.30;9.60;;;;;;;8.90;80.96;99238.75;1766634;81;21508;-63
2021/04/23 00:47:02;;;;;;;14.70;11.53;;;;;;;8.97;80.86;99238.91;1766621;81;21060;-63
2021/04/23 00:49:30;;;;;;;10.03;9.03;;;;;;;9.00;80.76;99249.14;1766621;81;21069;-63
2021/04/23 00:52:00;;;;;;;10.28;9.38;;;;;;;9.04;80.84;99251.17;1766724;81;21077;-63
2021/04/23 00:54:29;;;;;;;10.30;9.28;;;;;;;9.05;80.70;99239.89;1766644;81;21427;-63
2021/04/23 00:56:58;;;;;;;10.08;9.18;;;;;;;9.05;80.50;99236.84;1766467;81;21061;-63
2021/04/23 00:59:26;;;;;;;9.38;8.48;;;;;;;9.03;80.53;99245.59;1766173;81;21235;-63
2021/04/23 01:02:06;;;;;;;11.22;9.18;;;;;;;8.97;80.58;99239.76;1766062;81;22002;-63
2021/04/23 01:04:34;;;;;;;9.73;8.83;;;;;;;8.90;80.69;99240.05;1766313;81;21669;-62
2021/04/23 01:07:02;;;;;;;10.00;9.08;;;;;;;8.82;80.94;99242.07;1766249;81;21380;-63
2021/04/23 01:09:31;;;;;;;10.50;9.50;;;;;;;8.77;81.45;99249.20;1766188;81;21505;-63
2021/04/23 01:12:00;;;;;;;10.15;9.20;;;;;;;8.73;81.76;99254.10;1766217;81;21131;-63
2021/04/23 01:14:28;;;;;;;8.83;8.03;;;;;;;8.70;82.15;99249.88;1766298;81;21501;-63
2021/04/23 01:16:56;;;;;;;8.90;8.10;;;;;;;8.70;82.20;99244.69;1766304;81;21148;-63
2021/04/23 01:19:26;;;;;;;9.80;8.90;;;;;;;8.71;82.18;99244.23;1766275;81;21274;-62
2021/04/23 01:21:54;;;;;;;9.83;8.85;;;;;;;8.74;82.22;99257.94;1766148;81;21572;-63
2021/04/23 01:24:22;;;;;;;9.40;8.50;;;;;;;8.76;82.33;99258.73;1766185;81;21250;-63
2021/04/23 01:26:52;;;;;;;8.95;8.15;;;;;;;8.79;82.40;99255.99;1766295;81;21481;-63
2021/04/23 01:29:21;;;;;;;9.60;8.70;;;;;;;8.84;82.52;99254.53;1766256;81;21053;-62
2021/04/23 01:31:52;;;;;;;9.80;8.90;;;;;;;8.86;82.68;99261.35;1766233;81;21088;-62
2021/04/23 01:34:30;;;;;;;10.08;9.08;;;;;;;8.88;82.78;99265.19;1766283;81;21075;-63
2021/04/23 01:36:59;;;;;;;10.45;9.45;;;;;;;8.89;82.77;99262.54;1766285;81;21497;-63
2021/04/23 01:39:29;;;;;;;10.25;9.28;;;;;;;8.92;82.60;99265.02;1766304;81;21580;-63
2021/04/23 01:41:57;;;;;;;10.80;9.80;;;;;;;8.95;82.59;99271.39;1766224;81;21140;-63
2021/04/23 01:44:25;;;;;;;13.48;12.15;;;;;;;8.98;82.46;99276.92;1766170;81;22807;-63
2021/04/23 01:46:53;;;;;;;12.25;11.15;;;;;;;8.96;81.48;99282.16;1766212;81;21188;-63
2021/04/23 01:49:22;;;;;;;12.65;11.38;;;;;;;8.95;80.65;99283.52;1766165;81;21120;-62
2021/04/23 01:52:02;;;;;;;13.58;12.10;;;;;;;8.90;80.22;99291.47;1766180;81;21064;-63
2021/04/23 01:54:30;;;;;;;14.83;13.35;;;;;;;8.84;79.49;99289.54;1766314;81;21076;-63
2021/04/23 01:56:58;;;;;;;15.53;14.03;;;;;;;8.77;79.45;99302.36;1766156;81;22207;-62
2021/04/23 01:59:28;;;;;;;14.95;13.53;;;;;;;8.71;79.42;99309.06;1766001;81;21112;-63
2021/04/23 02:01:57;;;;;;;13.58;12.28;;;;;;;8.66;79.73;99302.73;1766170;81;21077;-62
2021/04/23 02:04:25;;;;;;;15.20;13.72;;;;;;;8.63;79.87;99299.80;1766152;81;21163;-63
2021/04/23 02:06:54;;;;;;;15.93;14.33;;;;;;;8.62;79.96;99305.03;1766116;81;21152;-63
2021/04/23 02:09:22;;;;;;;14.58;13.10;;;;;;;8.59;80.09;99307.28;1766178;81;21415;-63
2021/04/23 02:11:51;;;;;;;15.30;13.80;;;;;;;8.57;80.35;99300.05;1766105;81;21506;-62
2021/04/23 02:14:19;;;;;;;14.80;13.30;;;;;;;8.57;80.50;99310.41;1766176;81;21156;-63
2021/04/23 02:16:46;;;;;;;15.30;13.60;;;;;;;8.59;80.60;99305.17;1766150;81;21114;-63
2021/04/23 02:19:15;;;;;;;14.15;12.75;;;;;;;8.60;80.59;99304.24;1766162;81;21128;-62
2021/04/23 02:21:43;;;;;;;11.68;10.68;;;;;;;8.58;81.01;99308.22;1766268;81;21388;-62
2021/04/23 02:24:12;;;;;;;10.48;9.38;;;;;;;8.54;79.37;99313.56;1766069;81;21104;-62
2021/04/23 02:26:41;;;;;;;10.10;8.90;;;;;;;8.43;78.30;99323.44;1766152;81;21100;-63
2021/04/23 02:29:11;;;;;;;9.40;8.50;;;;;;;8.32;78.29;99322.53;1766177;81;21509;-63
2021/04/23 02:31:40;;;;;;;9.48;8.53;;;;;;;8.22;78.76;99330.17;1766283;81;21522;-63
2021/04/23 02:34:11;;;;;;;9.30;8.40;;;;;;;8.14;79.11;99335.64;1738474;81;22255;-62
2021/04/23 02:36:40;;;;;;;7.95;7.15;;;;;;;8.05;78.60;99345.00;1766199;81;21088;-63
2021/04/23 02:39:11;;;;;;;7.67;7.03;;;;;;;7.94;78.99;99344.06;1766101;81;21493;-62
2021/04/23 02:41:41;;;;;;;7.97;6.67;;;;;;;7.85;79.17;99338.33;1766263;81;21082;-63
2021/04/23 02:44:09;;;;;;;6.10;5.50;;;;;;;7.77;78.90;99336.00;1766286;81;21089;-63
2021/04/23 02:46:37;;;;;;;5.78;5.20;;;;;;;7.70;78.48;99336.23;1766167;81;21163;-63
2021/04/23 02:49:06;;;;;;;5.55;4.53;;;;;;;7.63;78.52;99339.91;1766082;81;21128;-63
2021/04/23 02:51:39;;;;;;;4.80;4.40;;;;;;;7.53;78.34;99344.09;1766117;81;21104;-63
2021/04/23 02:54:07;;;;;;;5.83;5.22;;;;;;;7.42;78.12;99346.15;1766149;81;21080;-63
2021/04/23 02:56:35;;;;;;;4.97;4.58;;;;;;;7.28;78.02;99347.02;1766133;81;21128;-63
2021/04/23 02:59:05;;;;;;;5.55;5.03;;;;;;;7.12;78.76;99344.50;1766030;81;22606;-64
2021/04/23 03:01:37;;;;;;;7.45;4.72;;;;;;;6.99;79.05;99356.95;1766741;81;21604;-63
2021/04/23 03:04:05;;;;;;;6.15;4.50;;;;;;;6.89;79.38;99358.94;1767017;81;21120;-63
2021/04/23 03:06:33;;;;;;;5.75;4.70;;;;;;;6.82;79.90;99366.45;1766657;81;21096;-63
2021/04/23 03:09:04;;;;;;;5.35;4.83;;;;;;;6.77;80.30;99376.09;1766671;81;21072;-63
2021/04/23 03:11:32;;;;;;;6.97;5.37;;;;;;;6.74;81.09;99381.34;1766803;81;22240;-63
2021/04/23 03:14:00;;;;;;;6.20;4.90;;;;;;;6.71;82.07;99385.30;1766626;81;21117;-62
2021/04/23 03:16:28;;;;;;;5.25;4.37;;;;;;;6.66;82.44;99386.30;1766719;81;21548;-62
2021/04/23 03:18:56;;;;;;;8.75;5.40;;;;;;;6.59;82.54;99393.39;1740906;81;21108;-61
2021/04/23 03:21:29;;;;;;;8.65;5.67;;;;;;;6.46;84.42;99393.28;1766770;81;21128;-60
2021/04/23 03:23:56;;;;;;;8.60;4.75;;;;;;;6.30;84.79;99384.23;1766684;81;23671;-61
2021/04/23 03:26:24;;;;;;;9.48;6.90;;;;;;;6.14;85.25;99382.49;1766590;81;21200;-61
2021/04/23 03:28:53;;;;;;;5.35;4.40;;;;;;;6.01;86.04;99374.18;1766652;81;21076;-61
2021/04/23 03:31:21;;;;;;;6.37;5.22;;;;;;;5.92;86.54;99377.00;1766646;81;21489;-61
2021/04/23 03:33:48;;;;;;;8.18;5.08;;;;;;;5.80;87.29;99382.41;1766666;81;21065;-60
2021/04/23 03:36:16;;;;;;;6.87;4.97;;;;;;;5.72;87.61;99383.05;1740718;81;21576;-60
2021/04/23 03:38:46;;;;;;;7.83;6.12;;;;;;;5.66;87.94;99378.86;1766545;81;21172;-61
2021/04/23 03:41:23;;;;;;;5.87;4.95;;;;;;;5.63;88.30;99388.41;1766674;81;21135;-60
2021/04/23 03:43:51;;;;;;;5.67;4.67;;;;;;;5.59;88.35;99391.96;1766729;81;21504;-60
2021/04/23 03:46:18;;;;;;;5.62;4.22;;;;;;;5.56;88.63;99392.02;1766688;81;21060;-60
2021/04/23 03:48:48;;;;;;;5.03;4.00;;;;;;;5.54;88.79;99389.03;1766645;81;21326;-60
2021/04/23 03:51:16;;;;;;;5.45;4.60;;;;;;;5.54;89.02;99400.64;1766673;81;21568;-60
2021/04/23 03:53:45;;;;;;;5.92;5.00;;;;;;;5.57;89.30;99410.49;1766633;81;21124;-60
2021/04/23 03:56:13;;;;;;;4.67;4.28;;;;;;;5.60;89.32;99402.66;1766699;81;21509;-61
2021/04/23 03:58:42;;;;;;;5.95;4.20;;;;;;;5.64;89.38;99419.77;1766659;81;21508;-60
2021/04/23 04:01:14;;;;;;;5.53;4.40;;;;;;;5.68;88.99;99414.95;1766518;81;21371;-60
2021/04/23 04:03:42;;;;;;;6.53;4.58;;;;;;;5.71;89.09;99417.48;1766629;81;21517;-60
2021/04/23 04:06:09;;;;;;;4.45;3.87;;;;;;;5.72;89.07;99418.73;1766730;81;21497;-60
2021/04/23 04:08:40;;;;;;;5.95;3.98;;;;;;;5.73;88.62;99420.43;1766558;81;21096;-61
2021/04/23 04:11:07;;;;;;;5.83;4.15;;;;;;;5.74;88.27;99424.71;1766679;81;21076;-61
2021/04/23 04:13:36;;;;;;;8.23;7.08;;;;;;;5.77;88.35;99428.52;1766603;81;21583;-60
2021/04/23 04:16:05;;;;;;;6.90;5.60;;;;;;;5.79;88.49;99422.88;1766564;81;21131;-61
2021/04/23 04:18:33;;;;;;;5.90;5.05;;;;;;;5.82;88.12;99420.64;1766608;81;21069;-60
2021/04/23 04:21:01;;;;;;;5.40;4.25;;;;;;;5.85;87.97;99427.03;1766665;81;21087;-60
2021/04/23 04:23:29;;;;;;;4.67;4.08;;;;;;;5.88;87.66;99425.67;1766600;81;21117;-61
2021/04/23 04:25:59;;;;;;;6.15;5.17;;;;;;;5.90;87.35;99423.09;1766611;81;21423;-60
2021/04/23 04:28:28;;;;;;;6.83;4.65;;;;;;;5.90;87.18;99412.77;1766591;81;21124;-61
2021/04/23 04:30:57;;;;;;;4.60;4.20;;;;;;;5.88;87.17;99418.81;1766620;81;21177;-61
2021/04/23 04:33:26;;;;;;;5.70;4.25;;;;;;;5.89;86.79;99429.98;1762639;81;21136;-61
2021/04/23 04:35:55;;;;;;;4.70;4.20;;;;;;;5.90;86.96;99433.42;1766586;81;21156;-61
2021/04/23 04:38:22;;;;;;;6.50;4.90;;;;;;;5.96;87.22;99445.75;1766781;81;22225;-61
2021/04/23 04:40:50;;;;;;;5.70;4.33;;;;;;;6.05;87.24;99442.09;1766730;81;21089;-61
2021/04/23 04:43:19;;;;;;;6.62;4.10;;;;;;;6.13;86.90;99444.06;1766859;81;21053;-61
2021/04/23 04:45:47;;;;;;;6.80;4.12;;;;;;;6.19;86.34;99451.67;1766780;81;21568;-61
2021/04/23 04:48:18;;;;;;;5.50;4.42;;;;;;;6.27;85.91;99442.42;1766745;81;21131;-60
2021/04/23 04:50:50;;;;;;;5.97;4.55;;;;;;;6.28;85.83;99444.97;1766758;81;21366;-61
2021/04/23 04:53:19;;;;;;;6.10;4.50;;;;;;;6.32;85.93;99450.92;1766727;81;21069;-61
2021/04/23 04:55:50;;;;;;;6.10;4.40;;;;;;;6.36;85.20;99455.98;1766723;81;21120;-61
2021/04/23 04:58:19;;;;;;;4.97;3.80;;;;;;;6.41;84.99;99452.81;1766710;81;21139;-61
2021/04/23 05:00:48;;;;;;;8.30;7.40;;;;;;;6.45;84.64;99451.86;1766283;80;21125;-61
2021/04/23 05:03:16;;;;;;;12.37;10.35;;;;;;;6.48;84.55;99454.38;1766196;81;21200;-62
2021/04/23 05:05:44;;;;;;;5.15;4.20;;;;;;;6.55;84.57;99457.22;1763343;80;21200;-63
2021/04/23 05:08:12;;;;;;;4.95;3.95;;;;;;;6.63;84.63;99451.83;1761534;81;21050;-62
2021/04/23 05:10:40;;;;;;;8.05;4.42;;;;;;;6.74;84.42;99447.69;1789829;80;21174;-61
2021/04/23 05:13:09;;;;;;;6.53;4.20;;;;;;;6.81;83.81;99447.47;1789900;80;21080;-63
2021/04/23 05:15:37;;;;;;;4.42;3.58;;;;;;;6.87;83.05;99449.05;1790073;80;21396;-62
2021/04/23 05:18:05;;;;;;;4.53;4.08;;;;;;;6.91;82.35;99454.55;1758132;80;21134;-62
2021/04/23 05:20:33;;;;;;;5.53;3.75;;;;;;;6.92;81.68;99458.84;1790073;80;21071;-61
2021/04/23 05:23:03;;;;;;;4.28;3.37;;;;;;;6.96;80.92;99460.45;1783853;79;21484;-63
2021/04/23 05:25:31;;;;;;;4.50;3.20;;;;;;;6.96;79.46;99463.05;1761870;81;21070;-62
2021/04/23 05:27:58;;;;;;;4.20;3.60;;;;;;;6.92;79.62;99466.59;1754016;80;22096;-62
2021/04/23 05:30:29;;;;;;;5.42;3.70;;;;;;;6.89;79.18;99467.96;1757156;80;21534;-62
2021/04/23 05:32:58;;;;;;;3.70;3.30;;;;;;;6.87;79.04;99469.30;1759531;81;21574;-62
2021/04/23 05:35:28;;;;;;;6.00;4.10;;;;;;;6.85;79.58;99473.66;1784841;80;21149;-64
2021/04/23 05:37:56;;;;;;;6.95;3.40;;;;;;;6.87;80.02;99477.05;1785020;80;21228;-63
2021/04/23 05:40:36;;;;;;;6.70;4.20;;;;;;;6.89;79.62;99478.30;1784259;79;21135;-62
2021/04/23 05:43:05;;;;;;;6.20;4.37;;;;;;;6.89;79.74;99479.59;1790580;79;21181;-62
2021/04/23 05:45:34;;;;;;;6.97;4.22;;;;;;;6.93;79.82;99486.83;1784387;78;21158;-63
2021/04/23 05:48:03;;;;;;;6.45;3.77;;;;;;;6.99;80.12;99488.82;1769332;80;21490;-63
2021/04/23 05:50:31;;;;;;;9.28;4.25;;;;;;;7.06;79.24;99495.95;1769810;81;21153;-64
2021/04/23 05:52:59;;;;;;;6.97;4.05;;;;;;;7.12;78.91;99495.80;1769665;80;21246;-64
2021/04/23 05:55:27;;;;;;;7.08;5.55;;;;;;;7.17;78.58;99492.65;1770832;81;21129;-65
2021/04/23 05:57:58;;;;;;;6.35;3.92;;;;;;;7.21;78.34;99500.70;1770969;81;21186;-62
2021/04/23 06:00:27;;;;;;;4.97;4.08;;;;;;;7.29;78.87;99497.92;1770266;81;21153;-63
2021/04/23 06:02:56;;;;;;;4.87;3.50;;;;;;;7.42;78.96;99499.26;1769531;81;21118;-63
2021/04/23 06:05:27;;;;;;;7.10;4.45;;;;;;;7.52;78.33;99502.86;1769466;81;21367;-63
2021/04/23 06:08:00;;;;;;;5.97;4.05;;;;;;;7.61;78.66;99514.22;1757237;81;21185;-65
2021/04/23 06:10:27;;;;;;;;;;;;;;;7.67;78.27;99510.62;1759705;81;21187;-64
2021/04/23 06:12:55;;;;;;;4.78;4.22;;;;;;;7.72;77.99;99510.49;1757091;81;20290;-62
2021/04/23 06:15:24;;;;;;;4.40;3.58;;;;;;;7.79;77.45;99511.57;1756640;81;21214;-63
2021/04/23 06:17:54;;;;;;;5.90;4.35;;;;;;;7.87;76.38;99508.73;1784640;80;21598;-63
2021/04/23 06:20:25;;;;;;;4.05;3.02;;;;;;;7.93;76.42;99513.74;1785259;80;21512;-62
2021/04/23 06:22:54;;;;;;;4.53;3.47;;;;;;;7.97;75.56;99511.91;1785493;80;21158;-63
2021/04/23 06:25:26;;;;;;;7.35;4.22;;;;;;;7.98;74.81;99512.31;1784700;80;21662;-63
2021/04/23 06:27:57;;;;;;;3.85;3.30;;;;;;;8.02;75.52;99511.30;1785585;80;21582;-63
2021/04/23 06:30:29;;;;;;;4.55;3.40;;;;;;;8.06;74.15;99507.73;1785447;79;21363;-63
2021/04/23 06:32:59;;;;;;;6.55;4.62;;;;;;;8.06;73.74;99508.58;1785632;80;21071;-63
2021/04/23 06:35:30;;;;;;;3.40;2.62;;;;;;;8.06;73.86;99512.47;1785502;80;21227;-62
2021/04/23 06:38:01;;;;;;;6.05;2.83;;;;;;;8.14;72.90;99516.13;1785549;80;21112;-61
2021/04/23 06:40:29;;;;;;;4.62;3.25;;;;;;;8.28;72.47;99517.39;1785514;80;21067;-62
2021/04/23 06:42:57;;;;;;;4.65;2.95;;;;;;;8.48;72.14;99520.67;1759371;80;21563;-61
2021/04/23 06:45:24;;;;;;;5.50;3.27;;;;;;;8.68;70.15;99512.25;1785450;80;21094;-62
2021/04/23 06:47:52;;;;;;;7.70;4.30;;;;;;;8.85;69.46;99518.16;1785602;80;21074;-62
2021/04/23 06:50:22;;;;;;;3.90;3.08;;;;;;;8.98;67.84;99509.09;1785510;80;21051;-62
2021/04/23 06:52:50;;;;;;;3.70;2.58;;;;;;;9.06;67.33;99495.83;1785640;80;21487;-63
2021/04/23 06:55:22;;;;;;;4.72;2.20;;;;;;;9.18;66.42;99498.86;1785585;80;22265;-63
2021/04/23 06:57:50;;;;;;;2.87;2.35;;;;;;;9.28;65.15;99509.30;1785507;80;21159;-62
2021/04/23 07:00:25;;;;;;;5.05;2.52;;;;;;;9.36;64.96;99510.78;1786573;79;21051;-62
2021/04/23 07:02:53;;;;;;;6.30;2.80;;;;;;;9.44;64.02;99511.34;1798938;79;21083;-61
2021/04/23 07:05:21;;;;;;;7.90;3.65;;;;;;;9.51;63.21;99512.38;1798919;79;21055;-62
2021/04/23 07:07:49;;;;;;;7.28;3.30;;;;;;;9.59;64.23;99506.42;1798829;79;21786;-61
2021/04/23 07:10:19;;;;;;;3.52;2.42;;;;;;;9.74;63.73;99497.70;1798859;79;21142;-62
2021/04/23 07:12:47;;;;;;;5.12;2.37;;;;;;;9.84;62.95;99499.02;1799046;79;21547;-63
2021/04/23 07:15:19;;;;;;;5.03;3.25;;;;;;;9.91;62.17;99496.59;1798967;79;21114;-62
2021/04/23 07:17:47;;;;;;;7.92;2.67;;;;;;;9.99;62.37;99490.19;1798966;79;21114;-62
2021/04/23 07:20:16;;;;;;;4.80;2.90;;;;;;;10.13;63.42;99497.47;1798651;79;21185;-63
2021/04/23 07:22:45;;;;;;;4.03;3.00;;;;;;;10.26;62.75;99491.34;1797116;79;21186;-66
2021/04/23 07:25:13;;;;;;;4.28;2.85;;;;;;;10.36;62.93;99491.39;1795833;79;21070;-62
2021/04/23 07:27:41;;;;;;;5.37;3.25;;;;;;;10.49;61.97;99491.28;1797502;79;21058;-62
2021/04/23 07:30:13;;;;;;;4.78;2.72;;;;;;;10.61;61.06;99485.56;1795839;79;21173;-63
2021/04/23 07:32:40;;;;;;;4.72;3.08;;;;;;;10.67;59.74;99480.11;1793631;79;22767;-64
2021/04/23 07:35:10;;;;;;;9.08;3.45;;;;;;;10.66;60.13;99484.08;1798790;79;21150;-62
2021/04/23 07:37:38;;;;;;;4.17;2.62;;;;;;;10.74;60.80;99483.77;1811659;79;21074;-63
2021/04/23 07:40:08;;;;;;;9.20;3.52;;;;;;;10.79;59.17;99476.14;1798670;79;21204;-62
2021/04/23 07:42:35;;;;;;;6.60;2.72;;;;;;;10.81;58.41;99485.19;1803827;79;21110;-62
2021/04/23 07:45:06;;;;;;;6.65;3.65;;;;;;;10.90;58.41;99486.95;1788425;80;23476;-62
2021/04/23 07:47:35;;;;;;;5.45;3.20;;;;;;;11.01;58.93;99480.83;1792467;79;21125;-62
2021/04/23 07:50:06;;;;;;;10.03;3.52;;;;;;;11.13;58.07;99470.81;1798599;79;21194;-63
2021/04/23 07:52:34;;;;;;;4.20;2.92;;;;;;;11.23;58.29;99479.89;1777939;79;21594;-64
2021/04/23 07:55:04;;;;;;;13.05;3.92;;;;;;;11.26;57.91;99476.70;1741446;82;21226;-62
2021/04/23 07:57:33;;;;;;;6.58;3.10;;;;;;;11.27;57.00;99474.95;1744474;82;21374;-63
2021/04/23 08:00:00;;;;;;;5.35;3.17;;;;;;;11.26;56.02;99471.95;1782787;80;21618;-64
2021/04/23 08:02:28;;;;;;;12.33;4.08;;;;;;;11.23;56.49;99476.84;1787109;79;21051;-62
2021/04/23 08:04:56;;;;;;;7.25;3.42;;;;;;;11.32;57.44;99484.71;1790264;79;21556;-63
2021/04/23 08:07:25;;;;;;;4.58;3.12;;;;;;;11.42;56.90;99489.04;1787571;80;21168;-61
2021/04/23 08:09:55;;;;;;;7.05;3.55;;;;;;;11.46;56.17;99491.45;1788996;79;21183;-63
2021/04/23 08:12:23;;;;;;;3.85;3.15;;;;;;;11.51;56.09;99488.19;1797329;79;21610;-64
2021/04/23 08:14:51;;;;;;;4.45;3.00;;;;;;;11.55;55.93;99481.93;1788986;80;21155;-63
2021/04/23 08:17:21;;;;;;;5.37;3.62;;;;;;;11.53;55.55;99477.24;1788975;79;21179;-62
2021/04/23 08:19:49;;;;;;;7.50;4.00;;;;;;;11.50;55.97;99480.44;1788763;80;21718;-61
2021/04/23 08:22:18;;;;;;;5.22;2.83;;;;;;;11.46;56.40;99487.54;1789000;79;21155;-60
2021/04/23 08:24:48;;;;;;;5.33;3.20;;;;;;;11.42;55.74;99479.92;1790019;78;21154;-62
2021/04/23 08:27:16;;;;;;;8.28;3.33;;;;;;;11.41;55.95;99476.47;1790287;80;21100;-60
2021/04/23 08:29:44;;;;;;;6.62;3.10;;;;;;;11.50;56.37;99483.89;1790333;80;21559;-60
2021/04/23 08:32:12;;;;;;;7.33;3.60;;;;;;;11.55;55.70;99491.05;1790327;79;21476;-61
2021/04/23 08:34:40;;;;;;;12.70;3.85;;;;;;;11.54;56.07;99491.11;1790342;79;22301;-63
2021/04/23 08:37:09;;;;;;;8.13;3.45;;;;;;;11.62;56.02;99488.98;1790420;80;21160;-61
2021/04/23 08:39:38;;;;;;;5.55;2.87;;;;;;;11.70;55.18;99487.73;1790260;79;21143;-61
2021/04/23 08:42:07;;;;;;;8.95;3.30;;;;;;;11.73;53.12;99498.03;1790347;79;21079;-62
2021/04/23 08:44:36;;;;;;;11.25;3.22;;;;;;;11.73;52.95;99497.18;1790393;79;21116;-60
2021/04/23 08:47:05;;;;;;;5.65;2.83;;;;;;;11.77;53.55;99496.62;1790357;80;21190;-61
2021/04/23 08:49:35;;;;;;;5.03;3.20;;;;;;;11.91;53.35;99490.30;1790251;78;21194;-62
2021/04/23 08:52:05;;;;;;;4.90;2.25;;;;;;;12.11;52.53;99485.00;1773129;79;21179;-60
2021/04/23 08:54:33;;;;;;;5.97;3.15;;;;;;;12.21;52.43;99486.23;1790288;79;21079;-61
2021/04/23 08:57:01;;;;;;;4.95;3.22;;;;;;;12.28;50.13;99490.25;1790362;79;21071;-62
2021/04/23 08:59:29;;;;;;;6.03;3.15;;;;;;;12.27;49.82;99489.02;1790287;79;21372;-61
2021/04/23 09:01:56;;;;;;;11.40;2.72;;;;;;;12.20;49.63;99485.00;1790192;80;21131;-62
2021/04/23 09:04:26;;;;;;;10.25;2.67;;;;;;;12.10;47.45;99485.91;1790273;78;21091;-61
2021/04/23 09:07:05;;;;;;;5.85;3.10;;;;;;;12.10;46.89;99481.16;1790307;80;21931;-61
2021/04/23 09:09:43;;;;;;;4.80;2.72;;;;;;;12.21;47.40;99483.63;1790368;80;21151;-61
2021/04/23 09:12:20;;;;;;;6.72;2.67;;;;;;;12.29;47.34;99481.97;1784619;79;21338;-61
2021/04/23 09:14:54;;;;;;;6.15;2.70;;;;;;;12.30;46.33;99484.51;1759154;81;21206;-62
2021/04/23 09:17:24;;;;;;;12.70;3.22;;;;;;;12.33;45.73;99490.88;1761467;81;21524;-61
2021/04/23 09:19:52;;;;;;;4.22;2.33;;;;;;;12.35;46.88;99482.98;1762289;81;21059;-61
2021/04/23 09:22:24;;;;;;;4.80;2.62;;;;;;;12.39;47.50;99480.59;1762358;81;21066;-61
2021/04/23 09:25:03;;;;;;;7.80;3.40;;;;;;;12.45;46.53;99484.22;1762409;81;21497;-61
2021/04/23 09:27:34;;;;;;;4.40;2.67;;;;;;;12.51;47.33;99477.40;1762265;81;21145;-62
2021/04/23 09:30:06;;;;;;;5.40;2.80;;;;;;;12.58;46.88;99485.32;1762331;81;21153;-60
2021/04/23 09:32:38;;;;;;;4.33;2.98;;;;;;;12.69;46.78;99484.31;1762303;81;21181;-60
2021/04/23 09:35:17;;;;;;;6.10;2.90;;;;;;;12.83;46.38;99487.53;1762442;81;21114;-60
2021/04/23 09:37:52;;;;;;;8.28;2.65;;;;;;;12.94;44.69;99495.69;1762408;81;21555;-62
2021/04/23 09:40:30;;;;;;;3.67;2.55;;;;;;;12.97;44.98;99488.16;1762244;81;21060;-60
2021/04/23 09:43:06;;;;;;;9.75;3.20;;;;;;;13.10;45.18;99482.22;1873499;75;22640;-61
2021/04/23 09:45:38;;;;;;;13.25;4.12;;;;;;;13.04;44.75;99485.59;1841619;78;21446;-60
2021/04/23 09:48:05;;;;;;;5.85;3.25;;;;;;;12.97;45.77;99481.63;1834578;78;21356;-62
2021/04/23 09:50:36;;;;;;;4.90;2.42;;;;;;;12.96;44.51;99483.40;1841432;78;20990;-61
2021/04/23 09:53:07;;;;;;;7.47;2.83;;;;;;;12.87;44.27;99480.39;1841625;78;21131;-61
2021/04/23 09:55:36;;;;;;;5.95;2.90;;;;;;;12.72;44.53;99475.49;1841477;78;21046;-61
2021/04/23 09:58:07;;;;;;;5.95;2.90;;;;;;;12.56;44.73;99474.58;1841511;78;21462;-61
2021/04/23 10:00:43;;;;;;;19.27;4.00;;;;;;;12.42;45.55;99470.02;1841094;77;21366;-61
2021/04/23 10:03:11;;;;;;;6.47;3.12;;;;;;;12.39;46.59;99470.16;1841461;78;21123;-60
2021/04/23 10:05:43;;;;;;;9.50;3.62;;;;;;;12.39;45.86;99467.09;1841457;78;21010;-62
2021/04/23 10:08:14;;;;;;;5.60;3.33;;;;;;;12.39;46.95;99477.52;1841515;78;21128;-61
2021/04/23 10:10:50;;;;;;;7.62;3.00;;;;;;;12.44;46.52;99468.17;1835730;78;21485;-61
2021/04/23 10:13:33;;;;;;;5.20;2.70;;;;;;;12.59;46.26;99473.94;1841494;78;21354;-61
2021/04/23 10:16:01;;;;;;;4.35;2.90;;;;;;;12.86;45.84;99464.35;1815285;78;21129;-62
2021/04/23 10:18:29;;;;;;;6.67;2.75;;;;;;;13.13;46.00;99465.55;1841539;78;21566;-62
2021/04/23 10:20:56;;;;;;;4.87;2.85;;;;;;;13.37;44.47;99462.16;1841446;78;21073;-62
2021/04/23 10:23:24;;;;;;;5.42;2.60;;;;;;;13.53;44.32;99451.27;1829425;78;21481;-60
2021/04/23 10:25:53;;;;;;;5.33;2.95;;;;;;;13.60;43.85;99449.98;1806988;79;21243;-66
2021/04/23 10:28:24;;;;;;;6.72;2.83;;;;;;;13.64;43.58;99441.06;1804317;79;21621;-62
2021/04/23 10:30:54;;;;;;;4.55;2.52;;;;;;;13.69;43.10;99446.89;1714457;83;21162;-62
2021/04/23 10:33:26;;;;;;;9.50;2.98;;;;;;;13.65;42.57;99454.97;1731841;82;21196;-66
2021/04/23 10:35:55;;;;;;;8.78;2.95;;;;;;;13.53;41.74;99455.19;1712376;82;21089;-61
2021/04/23 10:38:27;;;;;;;6.87;2.45;;;;;;;13.37;40.65;99445.18;1703284;84;22127;-63
2021/04/23 10:40:58;;;;;;;10.53;3.05;;;;;;;13.30;40.81;99446.42;1738030;82;21181;-64
2021/04/23 10:43:28;;;;;;;7.03;2.90;;;;;;;13.28;40.36;99448.27;1714619;82;21174;-63
2021/04/23 10:46:12;;;;;;;6.97;2.40;;;;;;;13.22;40.42;99442.05;1693064;83;21569;-63
2021/04/23 10:48:46;;;;;;;11.40;2.58;;;;;;;13.15;40.36;99445.89;1717686;83;21189;-62
2021/04/23 10:51:24;;;;;;;6.75;3.55;;;;;;;13.03;40.51;99448.20;1729475;82;21093;-62
2021/04/23 10:53:54;;;;;;;12.80;3.60;;;;;;;12.94;40.38;99460.90;1740608;80;21162;-63
2021/04/23 10:56:34;;;;;;;12.65;3.65;;;;;;;12.80;41.34;99464.65;1729051;80;21165;-63
2021/04/23 10:59:24;;;;;;;19.95;3.90;;;;;;;12.69;41.74;99464.75;1747133;80;21209;-62
2021/04/23 11:01:53;;;;;;;12.00;6.15;;;;;;;12.55;40.30;99461.98;1746185;82;21201;-62
2021/04/23 11:04:20;;;;;;;11.08;3.22;;;;;;;12.32;41.02;99463.11;1698052;82;21393;-62
2021/04/23 11:07:03;;;;;;;11.95;3.80;;;;;;;12.20;42.13;99457.16;1746808;82;21153;-62
2021/04/23 11:09:32;;;;;;;10.78;3.10;;;;;;;12.19;42.90;99460.69;1746907;81;21213;-63
2021/04/23 11:12:12;;;;;;;8.33;3.27;;;;;;;12.22;42.83;99464.92;1746632;80;21694;-62
2021/04/23 11:14:42;;;;;;;12.10;3.60;;;;;;;12.20;42.88;99462.38;1746897;81;21636;-62
2021/04/23 11:17:18;;;;;;;5.85;2.92;;;;;;;12.20;42.48;99461.08;1747152;82;21411;-61
2021/04/23 11:19:50;;;;;;;9.45;3.20;;;;;;;12.16;41.82;99455.65;1742710;80;21628;-62
2021/04/23 11:22:27;;;;;;;12.50;4.12;;;;;;;12.16;42.27;99453.50;1746740;82;21244;-62
2021/04/23 11:28:08;;;;;;;11.60;3.55;;;;;;;12.22;42.05;99461.85;1888441;76;22660;-61
2021/04/23 11:31:07;;;;;;;13.95;3.12;;;;;;;12.18;41.68;99457.73;1775248;80;21032;-61
2021/04/23 11:33:55;;;;;;;12.05;4.00;;;;;;;12.21;41.80;99452.80;1828089;77;21186;-62
2021/04/23 11:36:38;;;;;;;7.50;3.22;;;;;;;12.26;41.79;99443.84;1757991;81;21043;-63
2021/04/23 11:39:12;;;;;;;10.40;3.40;;;;;;;12.27;40.68;99444.23;1781900;79;21175;-62
2021/04/23 11:45:09;;;;;;;5.75;3.47;;;;;;;12.40;41.45;99444.00;1876171;75;22783;-66
2021/04/23 11:47:43;;;;;;;13.85;4.17;;;;;;;12.47;41.22;99445.02;1824236;78;21151;-64
2021/04/23 11:50:29;;;;;;;19.87;5.58;;;;;;;12.51;40.99;99448.70;1825148;78;21612;-63
2021/04/23 11:53:08;;;;;;;12.63;3.87;;;;;;;12.57;40.62;99443.66;1826230;76;21265;-63
2021/04/23 11:55:41;;;;;;;8.93;3.67;;;;;;;12.59;39.57;99453.06;1825913;78;21652;-63
2021/04/23 11:58:16;;;;;;;6.15;3.30;;;;;;;12.62;39.78;99449.00;1825056;78;21203;-64
2021/04/23 12:00:47;;;;;;;8.55;4.70;;;;;;;12.67;39.44;99451.39;1836611;76;21536;-61